createdAt,value
2018-12-24T00:02:05.997Z,1.03
2018-12-24T00:04:35.286Z,0.90
2018-12-24T00:07:04.633Z,0.90
2018-12-24T00:09:33.932Z,1.00
2018-12-24T00:12:07.114Z,0.90
2018-12-24T00:14:34.388Z,0.90
2018-12-24T00:17:03.760Z,1.00
2018-12-24T00:19:35.281Z,0.90
2018-12-24T00:22:04.213Z,1.00
2018-12-24T00:24:33.501Z,0.80
2018-12-24T00:27:02.862Z,0.90
2018-12-24T00:29:32.155Z,1.10
2018-12-24T00:32:01.701Z,0.90
2018-12-24T00:34:30.989Z,0.73
2018-12-24T00:37:00.549Z,0.70
2018-12-24T00:39:30.167Z,1.00
2018-12-24T00:41:59.728Z,0.97
2018-12-24T00:44:29.328Z,0.77
2018-12-24T00:46:58.614Z,1.00
2018-12-24T00:49:27.976Z,0.90
2018-12-24T00:51:57.663Z,0.80
2018-12-24T00:54:27.031Z,0.80
2018-12-24T00:56:56.322Z,0.80
2018-12-24T00:59:25.600Z,0.80
2018-12-24T01:01:55.175Z,1.00
2018-12-24T01:04:24.851Z,0.97
2018-12-24T01:06:54.489Z,0.90
2018-12-24T01:09:24.006Z,0.97
2018-12-24T01:11:53.362Z,0.80
2018-12-24T01:14:22.657Z,0.77
2018-12-24T01:16:52.018Z,0.70
2018-12-24T01:19:21.699Z,0.73
2018-12-24T01:21:50.970Z,0.90
2018-12-24T01:24:20.341Z,1.00
2018-12-24T01:26:49.621Z,1.00
2018-12-24T01:29:19.206Z,0.83
2018-12-24T01:31:48.814Z,0.70
2018-12-24T01:34:18.110Z,0.70
2018-12-24T01:36:47.823Z,0.80
2018-12-24T01:39:17.536Z,0.70
2018-12-24T01:41:46.887Z,0.87
2018-12-24T01:44:16.176Z,0.90
2018-12-24T01:46:45.463Z,0.80
2018-12-24T01:49:14.755Z,0.70
2018-12-24T01:51:44.336Z,0.80
2018-12-24T01:54:13.693Z,0.90
2018-12-24T01:56:43.065Z,0.80
2018-12-24T01:59:12.655Z,0.90
2018-12-24T02:01:41.941Z,0.90
2018-12-24T02:04:11.218Z,1.00
2018-12-24T02:06:40.823Z,0.83
2018-12-24T02:09:10.182Z,0.97
2018-12-24T02:11:39.853Z,0.90
2018-12-24T02:14:09.480Z,0.90
2018-12-24T02:16:38.849Z,1.30
2018-12-24T02:19:08.200Z,1.00
2018-12-24T02:21:37.799Z,1.13
2018-12-24T02:24:07.441Z,1.20
2018-12-24T02:26:37.149Z,1.20
2018-12-24T02:29:06.517Z,1.13
2018-12-24T02:31:35.876Z,1.00
2018-12-24T02:34:05.238Z,1.13
2018-12-24T02:36:34.954Z,1.13
2018-12-24T02:39:05.070Z,1.13
2018-12-24T02:41:34.658Z,1.00
2018-12-24T02:44:04.009Z,1.10
2018-12-24T02:46:33.734Z,1.23
2018-12-24T02:49:03.357Z,1.00
2018-12-24T02:51:33.417Z,0.80
2018-12-24T02:54:02.786Z,1.20
2018-12-24T02:56:32.076Z,1.00
2018-12-24T02:59:01.345Z,1.00
2018-12-24T03:01:30.716Z,0.90
2018-12-24T03:04:00.068Z,1.00
2018-12-24T03:06:29.428Z,1.00
2018-12-24T03:08:59.117Z,0.90
2018-12-24T03:11:29.134Z,1.07
2018-12-24T03:13:58.418Z,1.10
2018-12-24T03:16:27.720Z,1.10
2018-12-24T03:18:57.235Z,0.90
2018-12-24T03:21:26.847Z,0.90
2018-12-24T03:23:56.396Z,0.80
2018-12-24T03:26:25.681Z,0.90
2018-12-24T03:28:55.050Z,0.90
2018-12-24T03:31:24.411Z,1.00
2018-12-24T03:33:53.931Z,0.90
2018-12-24T03:36:23.303Z,1.00
2018-12-24T03:38:53.033Z,1.07
2018-12-24T03:41:22.993Z,1.03
2018-12-24T03:43:52.286Z,1.27
2018-12-24T03:46:22.121Z,1.20
2018-12-24T03:48:51.565Z,1.23
2018-12-24T03:51:20.838Z,1.00
2018-12-24T03:53:50.133Z,1.10
2018-12-24T03:56:19.738Z,1.30
2018-12-24T03:58:49.055Z,1.00
2018-12-24T04:01:18.669Z,1.20
2018-12-24T04:03:48.045Z,1.17
2018-12-24T04:06:17.650Z,1.03
2018-12-24T04:08:46.930Z,1.23
2018-12-24T04:11:16.209Z,1.20
2018-12-24T04:13:45.578Z,1.53
2018-12-24T04:16:14.921Z,1.63
2018-12-24T04:18:44.211Z,1.40
2018-12-24T04:21:13.478Z,1.10
2018-12-24T04:23:43.137Z,1.20
2018-12-24T04:26:12.424Z,0.83
2018-12-24T04:28:42.375Z,0.90
2018-12-24T04:31:11.731Z,1.00
2018-12-24T04:33:41.098Z,0.70
2018-12-24T04:36:10.674Z,0.80
2018-12-24T04:38:40.290Z,0.80
2018-12-24T04:41:09.837Z,0.80
2018-12-24T04:43:39.406Z,0.70
2018-12-24T04:46:08.686Z,0.73
2018-12-24T04:48:38.550Z,0.63
2018-12-24T04:51:07.830Z,0.60
2018-12-24T04:53:37.468Z,1.23
2018-12-24T04:56:06.755Z,0.60
2018-12-24T04:58:36.049Z,0.70
2018-12-24T05:01:05.337Z,0.60
2018-12-24T05:03:34.630Z,0.90
2018-12-24T05:06:03.990Z,0.70
2018-12-24T05:08:33.614Z,0.80
2018-12-24T05:11:03.244Z,0.87
2018-12-24T05:13:40.683Z,0.70
2018-12-24T05:16:03.942Z,0.70
2018-12-24T05:18:33.232Z,0.80
2018-12-24T05:21:02.509Z,0.70
2018-12-24T05:23:31.912Z,0.80
2018-12-24T05:26:01.507Z,0.60
2018-12-24T05:28:30.784Z,0.80
2018-12-24T05:31:00.154Z,0.70
2018-12-24T05:33:29.429Z,0.60
2018-12-24T05:35:58.724Z,0.70
2018-12-24T05:38:27.997Z,0.70
2018-12-24T05:40:57.290Z,0.60
2018-12-24T05:43:26.644Z,0.73
2018-12-24T05:45:55.937Z,0.80
2018-12-24T05:48:25.517Z,0.70
2018-12-24T05:50:54.805Z,0.80
2018-12-24T05:53:24.089Z,0.77
2018-12-24T05:55:53.457Z,0.60
2018-12-24T05:58:22.737Z,0.80
2018-12-24T06:00:52.425Z,0.60
2018-12-24T06:03:21.701Z,0.80
2018-12-24T06:05:50.993Z,0.70
2018-12-24T06:08:20.580Z,0.93
2018-12-24T06:10:49.870Z,0.70
2018-12-24T06:13:19.137Z,0.60
2018-12-24T06:15:48.510Z,0.77
2018-12-24T06:18:17.788Z,0.70
2018-12-24T06:20:47.069Z,0.90
2018-12-24T06:23:16.337Z,0.80
2018-12-24T06:25:46.361Z,0.80
2018-12-24T06:28:15.970Z,0.70
2018-12-24T06:30:45.572Z,1.00
2018-12-24T06:33:15.188Z,0.70
2018-12-24T06:35:44.470Z,0.60
2018-12-24T06:38:13.754Z,0.60
2018-12-24T06:40:43.133Z,0.50
2018-12-24T06:43:12.747Z,0.80
2018-12-24T06:45:42.356Z,0.70
2018-12-24T06:48:11.709Z,0.90
2018-12-24T06:50:40.997Z,0.80
2018-12-24T06:53:10.377Z,0.80
2018-12-24T06:55:39.683Z,0.70
2018-12-24T06:58:09.263Z,0.70
2018-12-24T07:00:38.621Z,0.90
2018-12-24T07:03:07.897Z,0.80
2018-12-24T07:05:37.530Z,0.90
2018-12-24T07:08:06.884Z,0.60
2018-12-24T07:10:36.247Z,0.67
2018-12-24T07:13:05.899Z,0.80
2018-12-24T07:15:35.265Z,1.03
2018-12-24T07:18:04.697Z,0.83
2018-12-24T07:20:33.993Z,0.70
2018-12-24T07:23:03.265Z,0.80
2018-12-24T07:25:32.630Z,0.70
2018-12-24T07:28:02.210Z,0.70
2018-12-24T07:30:31.941Z,0.80
2018-12-24T07:33:01.222Z,0.90
2018-12-24T07:35:30.622Z,0.80
2018-12-24T07:37:59.977Z,0.80
2018-12-24T07:40:29.331Z,1.40
2018-12-24T07:42:58.645Z,0.70
2018-12-24T07:45:27.925Z,1.10
2018-12-24T07:47:57.313Z,1.00
2018-12-24T07:50:26.662Z,0.70
2018-12-24T07:52:56.024Z,0.80
2018-12-24T07:55:25.689Z,1.03
2018-12-24T07:57:54.971Z,1.00
2018-12-24T08:00:24.241Z,1.47
2018-12-24T08:02:53.899Z,0.90
2018-12-24T08:05:23.605Z,0.97
2018-12-24T08:07:54.097Z,1.00
2018-12-24T08:10:24.057Z,1.10
2018-12-24T08:12:53.350Z,1.40
2018-12-24T08:15:22.626Z,1.17
2018-12-24T08:17:52.263Z,1.20
2018-12-24T08:20:21.529Z,1.20
2018-12-24T08:22:51.206Z,1.10
2018-12-24T08:25:20.473Z,1.30
2018-12-24T08:27:49.841Z,1.33
2018-12-24T08:30:19.627Z,1.47
2018-12-24T08:32:48.973Z,1.60
2018-12-24T08:35:18.588Z,1.50
2018-12-24T08:37:47.882Z,1.40
2018-12-24T08:40:17.237Z,1.77
2018-12-24T08:42:46.857Z,1.30
2018-12-24T08:45:16.534Z,1.20
2018-12-24T08:47:45.821Z,1.20
2018-12-24T08:50:15.558Z,1.30
2018-12-24T08:52:44.852Z,1.30
2018-12-24T08:55:14.436Z,1.10
2018-12-24T08:57:43.724Z,1.10
2018-12-24T09:00:13.154Z,1.00
2018-12-24T09:02:42.749Z,1.20
2018-12-24T09:05:12.175Z,1.20
2018-12-24T09:07:41.465Z,1.20
2018-12-24T09:10:10.754Z,1.13
2018-12-24T09:12:40.111Z,1.33
2018-12-24T09:15:10.637Z,0.90
2018-12-24T09:17:39.989Z,0.90
2018-12-24T09:20:09.706Z,1.13
2018-12-24T09:22:39.306Z,1.20
2018-12-24T09:25:09.018Z,1.07
2018-12-24T09:27:38.381Z,1.00
2018-12-24T09:30:10.568Z,1.10
2018-12-24T09:32:39.846Z,1.10
2018-12-24T09:35:09.556Z,0.93
2018-12-24T09:37:39.206Z,1.20
2018-12-24T09:40:14.244Z,1.00
2018-12-24T09:42:43.606Z,1.00
2018-12-24T09:45:13.373Z,1.00
2018-12-24T09:47:42.658Z,1.20
2018-12-24T09:50:12.301Z,1.10
2018-12-24T09:52:41.773Z,1.00
2018-12-24T09:55:11.143Z,1.27
2018-12-24T09:57:40.409Z,1.13
2018-12-24T10:00:11.709Z,1.40
2018-12-24T10:02:44.468Z,1.30
2018-12-24T10:05:16.559Z,1.30
2018-12-24T10:07:46.275Z,1.60
2018-12-24T10:10:18.009Z,1.40
2018-12-24T10:12:47.625Z,1.40
2018-12-24T10:15:17.350Z,1.57
2018-12-24T10:17:46.958Z,1.37
2018-12-24T10:20:16.248Z,1.60
2018-12-24T10:22:45.861Z,1.40
2018-12-24T10:25:15.321Z,1.50
2018-12-24T10:27:44.597Z,1.60
2018-12-24T10:30:14.173Z,1.60
2018-12-24T10:32:43.446Z,1.30
2018-12-24T10:35:12.810Z,1.60
2018-12-24T10:37:42.416Z,1.43
2018-12-24T10:40:17.286Z,1.80
2018-12-24T10:42:46.931Z,1.90
2018-12-24T10:45:16.887Z,2.13
2018-12-24T10:47:46.330Z,1.80
2018-12-24T10:50:15.901Z,2.00
2018-12-24T10:52:45.484Z,2.03
2018-12-24T10:55:15.064Z,2.00
2018-12-24T10:57:44.514Z,2.13
2018-12-24T11:00:14.038Z,2.07
2018-12-24T11:02:43.586Z,2.30
2018-12-24T11:05:13.042Z,2.07
2018-12-24T11:07:42.321Z,2.10
2018-12-24T11:10:12.869Z,2.40
2018-12-24T11:12:42.274Z,1.70
2018-12-24T11:15:13.338Z,2.00
2018-12-24T11:17:42.970Z,2.10
2018-12-24T11:20:12.700Z,2.63
2018-12-24T11:22:41.984Z,2.60
2018-12-24T11:25:11.727Z,2.73
2018-12-24T11:27:41.013Z,2.70
2018-12-24T11:30:10.720Z,2.70
2018-12-24T11:32:40.010Z,2.13
2018-12-24T11:35:09.281Z,2.40
2018-12-24T11:37:38.589Z,1.90
2018-12-24T11:40:08.420Z,2.30
2018-12-24T11:42:37.717Z,2.60
2018-12-24T11:45:07.438Z,2.50
2018-12-24T11:47:37.094Z,1.77
2018-12-24T11:50:06.546Z,2.60
2018-12-24T11:52:36.011Z,2.70
2018-12-24T11:55:05.457Z,2.40
2018-12-24T11:57:34.745Z,3.33
2018-12-24T12:00:04.494Z,2.87
2018-12-24T12:02:33.870Z,3.43
2018-12-24T12:05:03.147Z,2.97
2018-12-24T12:07:32.442Z,2.90
2018-12-24T12:10:01.737Z,3.27
2018-12-24T12:12:31.097Z,2.77
2018-12-24T12:15:00.457Z,3.20
2018-12-24T12:17:29.744Z,3.07
2018-12-24T12:19:59.014Z,4.10
2018-12-24T12:22:28.707Z,3.10
2018-12-24T12:24:57.986Z,3.47
2018-12-24T12:27:27.378Z,3.40
2018-12-24T12:29:56.990Z,4.37
2018-12-24T12:32:26.349Z,3.60
2018-12-24T12:34:55.992Z,3.03
2018-12-24T12:37:25.301Z,3.03
2018-12-24T12:39:54.844Z,3.00
2018-12-24T12:42:24.139Z,3.37
2018-12-24T12:44:54.017Z,2.87
2018-12-24T12:47:23.583Z,2.80
2018-12-24T12:49:52.877Z,3.47
2018-12-24T12:52:22.161Z,2.97
2018-12-24T12:54:51.732Z,2.87
2018-12-24T12:57:21.084Z,3.00
2018-12-24T12:59:50.864Z,3.00
2018-12-24T13:02:20.226Z,3.07
2018-12-24T13:04:49.609Z,2.53
2018-12-24T13:07:19.609Z,2.70
2018-12-24T13:09:48.932Z,3.03
2018-12-24T13:12:18.285Z,3.20
2018-12-24T13:14:47.577Z,3.00
2018-12-24T13:17:16.854Z,3.40
2018-12-24T13:19:46.505Z,3.10
2018-12-24T13:22:16.133Z,3.03
2018-12-24T13:24:45.760Z,3.47
2018-12-24T13:27:15.045Z,2.97
2018-12-24T13:29:44.414Z,3.90
2018-12-24T13:32:13.781Z,2.90
2018-12-24T13:34:43.069Z,2.67
2018-12-24T13:37:13.430Z,2.90
2018-12-24T13:39:42.785Z,3.33
2018-12-24T13:42:12.052Z,3.77
2018-12-24T13:44:41.741Z,3.33
2018-12-24T13:47:11.094Z,3.50
2018-12-24T13:49:40.852Z,3.40
2018-12-24T13:52:10.577Z,3.70
2018-12-24T13:54:39.884Z,3.17
2018-12-24T13:57:09.794Z,3.50
2018-12-24T13:59:39.390Z,3.47
2018-12-24T14:02:09.101Z,3.43
2018-12-24T14:04:38.481Z,3.20
2018-12-24T14:07:07.829Z,3.10
2018-12-24T14:09:37.205Z,3.37
2018-12-24T14:12:06.812Z,3.60
2018-12-24T14:14:36.201Z,4.10
2018-12-24T14:17:05.472Z,5.53
2018-12-24T14:19:34.761Z,4.57
2018-12-24T14:22:04.444Z,4.70
2018-12-24T14:24:33.732Z,4.33
2018-12-24T14:27:03.095Z,4.00
2018-12-24T14:29:32.738Z,3.40
2018-12-24T14:32:02.017Z,4.10
2018-12-24T14:34:31.605Z,3.60
2018-12-24T14:37:01.193Z,3.23
2018-12-24T14:39:30.499Z,4.10
2018-12-24T14:41:59.773Z,4.00
2018-12-24T14:44:29.754Z,3.33
2018-12-24T14:46:59.025Z,3.00
2018-12-24T14:49:28.316Z,3.40
2018-12-24T14:51:57.595Z,3.27
2018-12-24T14:54:27.178Z,3.90
2018-12-24T14:56:56.722Z,3.70
2018-12-24T14:59:26.020Z,4.33
2018-12-24T15:01:55.376Z,3.90
2018-12-24T15:05:08.517Z,3.80
2018-12-24T15:07:37.372Z,4.30
2018-12-24T15:10:06.805Z,3.63
2018-12-24T15:12:35.666Z,3.30
2018-12-24T15:15:04.945Z,3.53
2018-12-24T15:17:33.796Z,4.17
2018-12-24T15:20:02.745Z,3.30
2018-12-24T15:22:31.686Z,3.47
2018-12-24T15:25:00.550Z,3.50
2018-12-24T15:27:29.694Z,3.37
2018-12-24T15:29:58.560Z,4.40
2018-12-24T15:32:27.748Z,5.70
2018-12-24T15:34:57.249Z,7.83
2018-12-24T15:37:26.117Z,6.50
2018-12-24T15:39:55.292Z,6.10
2018-12-24T15:42:24.145Z,6.50
2018-12-24T15:44:53.014Z,6.57
2018-12-24T15:47:21.941Z,5.30
2018-12-24T15:49:50.889Z,5.63
2018-12-24T15:52:19.739Z,5.50
2018-12-24T15:54:48.608Z,6.63
2018-12-24T15:57:18.090Z,6.10
2018-12-24T15:59:46.973Z,5.90
2018-12-24T16:02:15.902Z,6.40
2018-12-24T16:04:44.789Z,6.70
2018-12-24T16:07:13.746Z,6.63
2018-12-24T16:09:42.757Z,6.10
2018-12-24T16:12:11.944Z,7.20
2018-12-24T16:14:40.816Z,6.60
2018-12-24T16:17:09.680Z,6.57
2018-12-24T16:19:38.629Z,6.43
2018-12-24T16:22:07.817Z,7.47
2018-12-24T16:24:36.699Z,5.90
2018-12-24T16:27:05.593Z,7.07
2018-12-24T16:29:34.796Z,6.20
2018-12-24T16:32:03.673Z,6.60
2018-12-24T16:34:32.832Z,7.33
2018-12-24T16:37:01.721Z,5.80
2018-12-24T16:39:30.569Z,6.33
2018-12-24T16:41:59.449Z,5.37
2018-12-24T16:44:28.367Z,5.03
2018-12-24T16:46:59.537Z,6.13
2018-12-24T16:49:27.889Z,5.73
2018-12-24T16:51:57.121Z,6.80
2018-12-24T16:54:26.270Z,5.70
2018-12-24T16:56:55.142Z,7.17
2018-12-24T16:59:23.997Z,6.10
2018-12-24T17:01:52.873Z,5.20
2018-12-24T17:04:21.737Z,6.33
2018-12-24T17:06:50.605Z,6.20
2018-12-24T17:09:19.524Z,6.17
2018-12-24T17:11:48.392Z,7.40
2018-12-24T17:14:17.256Z,5.80
2018-12-24T17:16:46.122Z,7.27
2018-12-24T17:19:15.631Z,6.63
2018-12-24T17:21:44.573Z,7.80
2018-12-24T17:24:13.801Z,6.80
2018-12-24T17:26:43.084Z,7.60
2018-12-24T17:29:11.929Z,6.00
2018-12-24T17:31:40.797Z,6.90
2018-12-24T17:34:10.267Z,6.10
2018-12-24T17:36:39.148Z,5.63
2018-12-24T17:39:09.433Z,4.70
2018-12-24T17:41:38.685Z,4.63
2018-12-24T17:44:08.187Z,4.67
2018-12-24T17:46:37.115Z,3.87
2018-12-24T17:49:05.989Z,5.83
2018-12-24T17:51:34.842Z,6.53
2018-12-24T17:54:03.794Z,6.03
2018-12-24T17:56:32.929Z,7.43
2018-12-24T17:59:01.801Z,7.47
2018-12-24T18:01:30.733Z,6.60
2018-12-24T18:03:59.895Z,7.50
2018-12-24T18:06:29.124Z,6.13
2018-12-24T18:08:58.325Z,7.37
2018-12-24T18:11:27.180Z,6.77
2018-12-24T18:13:56.124Z,6.70
2018-12-24T18:16:24.977Z,6.20
2018-12-24T18:18:54.205Z,7.13
2018-12-24T18:21:23.397Z,7.97
2018-12-24T18:23:52.314Z,6.60
2018-12-24T18:26:21.253Z,9.87
2018-12-24T18:28:50.578Z,8.33
2018-12-24T18:31:20.023Z,6.40
2018-12-24T18:33:49.253Z,5.63
2018-12-24T18:36:18.120Z,5.57
2018-12-24T18:38:47.268Z,4.27
2018-12-24T18:41:16.200Z,3.97
2018-12-24T18:43:45.359Z,3.33
2018-12-24T18:46:14.212Z,3.43
2018-12-24T18:48:43.090Z,4.00
2018-12-24T18:51:12.457Z,3.40
2018-12-24T18:53:41.792Z,3.70
2018-12-24T18:56:10.644Z,7.20
2018-12-24T18:58:39.834Z,25.17
2018-12-24T19:01:08.769Z,4.80
2018-12-24T19:03:37.655Z,4.00
2018-12-24T19:06:07.022Z,4.30
2018-12-24T19:08:35.881Z,3.67
2018-12-24T19:11:04.809Z,3.00
2018-12-24T19:13:34.009Z,3.40
2018-12-24T19:16:03.009Z,2.73
2018-12-24T19:18:32.005Z,2.80
2018-12-24T19:21:00.856Z,3.70
2018-12-24T19:23:29.979Z,3.70
2018-12-24T19:25:58.832Z,3.97
2018-12-24T19:28:27.956Z,7.90
2018-12-24T19:30:57.366Z,11.77
2018-12-24T19:33:26.221Z,10.20
2018-12-24T19:35:55.104Z,9.00
2018-12-24T19:38:24.268Z,8.80
2018-12-24T19:40:53.136Z,8.60
2018-12-24T19:43:21.982Z,7.20
2018-12-24T19:45:50.854Z,8.10
2018-12-24T19:48:19.712Z,7.13
2018-12-24T19:50:48.572Z,6.57
2018-12-24T19:53:17.721Z,7.80
2018-12-24T19:55:46.598Z,8.47
2018-12-24T19:58:15.528Z,6.97
2018-12-24T20:00:44.413Z,7.90
2018-12-24T20:03:13.269Z,7.70
2018-12-24T20:05:42.213Z,8.17
2018-12-24T20:08:11.081Z,8.13
2018-12-24T20:10:40.288Z,7.40
2018-12-24T20:13:09.429Z,7.37
2018-12-24T20:15:38.309Z,8.60
2018-12-24T20:18:07.826Z,9.27
2018-12-24T20:20:36.696Z,8.10
2018-12-24T20:23:05.921Z,9.40
2018-12-24T20:25:34.913Z,8.83
2018-12-24T20:28:03.862Z,9.03
2018-12-24T20:30:33.105Z,10.53
2018-12-24T20:33:02.248Z,10.17
2018-12-24T20:35:31.110Z,9.83
2018-12-24T20:38:00.317Z,10.07
2018-12-24T20:40:29.180Z,8.73
2018-12-24T20:42:58.377Z,9.33
2018-12-24T20:45:27.233Z,8.43
2018-12-24T20:47:56.363Z,8.17
2018-12-24T20:50:25.561Z,7.70
2018-12-24T20:52:54.703Z,7.00
2018-12-24T20:55:23.566Z,7.73
2018-12-24T20:57:52.513Z,7.70
2018-12-24T21:00:21.669Z,8.07
2018-12-24T21:02:50.542Z,6.70
2018-12-24T21:05:19.408Z,6.23
2018-12-24T21:07:48.958Z,6.83
2018-12-24T21:10:18.126Z,7.63
2018-12-24T21:12:46.997Z,8.10
2018-12-24T21:15:16.213Z,8.90
2018-12-24T21:17:45.377Z,9.33
2018-12-24T21:20:14.305Z,7.80
2018-12-24T21:22:43.499Z,8.70
2018-12-24T21:25:12.353Z,7.20
2018-12-24T21:27:41.509Z,7.30
2018-12-24T21:30:10.793Z,8.97
2018-12-24T21:32:39.984Z,8.07
2018-12-24T21:35:08.917Z,9.40
2018-12-24T21:37:37.801Z,8.97
2018-12-24T21:40:06.799Z,8.50
2018-12-24T21:42:35.660Z,6.60
2018-12-24T21:45:04.670Z,8.33
2018-12-24T21:47:33.888Z,7.50
2018-12-24T21:50:02.746Z,8.60
2018-12-24T21:52:31.933Z,6.80
2018-12-24T21:55:00.894Z,6.90
2018-12-24T21:57:29.741Z,7.23
2018-12-24T21:59:59.325Z,7.40
2018-12-24T22:02:28.268Z,6.87
2018-12-24T22:04:57.188Z,5.43
2018-12-24T22:07:26.356Z,5.50
2018-12-24T22:09:55.209Z,4.60
2018-12-24T22:12:24.394Z,3.70
2018-12-24T22:14:53.263Z,4.07
2018-12-24T22:17:22.438Z,3.80
2018-12-24T22:19:51.297Z,4.60
2018-12-24T22:22:20.168Z,5.87
2018-12-24T22:24:49.366Z,6.30
2018-12-24T22:27:18.228Z,5.80
2018-12-24T22:29:47.093Z,5.60
2018-12-24T22:32:15.969Z,4.70
2018-12-24T22:34:45.233Z,4.80
2018-12-24T22:37:14.343Z,4.20
2018-12-24T22:39:43.189Z,4.40
2018-12-24T22:42:12.056Z,4.10
2018-12-24T22:44:40.980Z,5.10
2018-12-24T22:47:09.915Z,5.07
2018-12-24T22:49:38.764Z,6.00
2018-12-24T22:52:07.982Z,6.13
2018-12-24T22:54:37.181Z,6.00
2018-12-24T22:57:06.052Z,6.10
2018-12-24T22:59:34.922Z,4.40
2018-12-24T23:02:03.929Z,4.93
2018-12-24T23:04:32.858Z,5.47
2018-12-24T23:07:01.720Z,4.87
2018-12-24T23:09:30.938Z,5.40
2018-12-24T23:11:59.872Z,5.10
2018-12-24T23:14:29.127Z,4.70
2018-12-24T23:16:59.235Z,4.93
2018-12-24T23:19:28.241Z,4.57
2018-12-24T23:21:57.383Z,5.10
2018-12-24T23:24:26.237Z,4.77
2018-12-24T23:26:55.376Z,4.90
2018-12-24T23:29:24.522Z,4.47
2018-12-24T23:31:53.377Z,4.53
2018-12-24T23:34:22.560Z,5.97
2018-12-24T23:36:51.439Z,5.13
2018-12-24T23:39:20.313Z,7.40
2018-12-24T23:41:49.169Z,7.70
2018-12-24T23:44:18.037Z,7.07
2018-12-24T23:46:47.286Z,5.67
2018-12-24T23:49:16.149Z,4.97
2018-12-24T23:51:45.014Z,5.60
2018-12-24T23:54:13.954Z,4.93
2018-12-24T23:56:43.146Z,3.90
2018-12-24T23:59:12.353Z,5.00
